Portada
METAR-TAF:

METAR-TAF

Aeropuertos :

Aeropuerto de Florencia

Florencia, Italia

latitud: 43-48N, longitud: 011-12E, altitud: 40 m

Observación

El informe se hizo hace 29 minutos, a las 00:20 UTC
Viento 5 kt del este
Temperatura 17°C
Humedad 88%
Presión 1012 hPa
Visibilidad 10 km o más
sin nubes por debajo de 1500 m y sin presencia de cumulonimbus.

METAR: LIRQ 030020Z 08005KT CAVOK 17/15 Q1012

Hora: 02:49 (00:49 UTC)

Pronóstico

El informe se hizo hace 1 hora y 49 minutos, a las 23:00 UTC
Pronóstico válido del 03 a las 00 UTC al 03 a las 24 UTC
Viento 5 kt con dirección variable
Visibilidad 10 km o más
Nubes dispersas a una altura de 3000 ft

TAF: LIRQ 022300Z 0300/0324 VRB05KT 9999 SCT030

Observaciones y pronósticos meteorológicos de más de 4000 aeropuertos (mensajes METAR y TAF).

Los puntos amarillos y rojos representan las estaciones disponibles.

Ponga el ratón en el punto deseado para ver el nombre de la estación.

Haga clic para ver las observaciones y los pronósticos meteorológicos.

Para cambiar el mapa : haga clic en los botones verdes con una cruz de color negro para hacer un zoom, en el botón verde con un guión para alejar o en las flechas verdes para mapas adyacentes.


METAR-TAF: